Hlavní strana
METAR-TAF:

METAR-TAF

Letiště :

Kajaani, Finsko

zeměpisná šířka: 64-17N, zeměpisná délka: 027-41E, výška: 143 m

Aktuální stav počasí

Zpráva byla vytvořena před 32 minutami, v 01:20 UTC
Jihojihozápadní vítr 8 kt, proměnlivý mezi jižním a západojihozápadním
Teplota 1°C
Vlhkost vzduchu 93%
Tlak 1011 hPa
Viditelnost 10 km a více
Zataženo ve výšce 500 ft

METAR: EFKI 220120Z AUTO 20008KT 170V240 9999 OVC005 01/00 Q1011

Čas: 04:52 (01:52 UTC)

Předpověď počasí

Zpráva byla vytvořena před 8 hodinami a 10 minutami, v 17:42 UTC
Předpověď platná od 21 v 18 UTC do 21 v 21 UTC
Jihojihozápadní vítr 6 kt
Viditelnost 10 km a více
Oblačno až skoro zataženo ve výšce 1500 ft
Dočasný
od 21 v 18 UTC do 21 v 21 UTC
Viditelnost: 7000 m
Oblačno až skoro zataženo ve výšce 1000 ft
slabé sněžení

TAF: EFKI 211742Z 2118/2121 21006KT 9999 BKN015 TEMPO 2118/2121 7000 -SN BKN010

Stav a předpovědi počasí z více než 4 000 letišť (zprávy METAR a TAF).

Červené a žluté tečky na mapě představují dostupné meteorologické stanice.

Když kurzor umístíte na tečku, zobrazí se název stanice.

Pak kliknutím zobrazíte stav a předpověď počasí.

Chcete-li změnit mapu, kliknutím na zelené tlačítko se znaménkem +mapu přiblížíte, kliknutím na zelené tlačítko se znaménkem – mapu oddálíte a kliknutím na zelené šipky přejdete na sousední mapy.


METAR-TAF: